Time;durP1;ratioP1;P1;durP2;ratioP2;P2;SDS_P1;SDS_P2;PMS_P1;PMS_P2;Temp;Humidity;BMP_temperature;BMP_pressure;BME280_temperature;BME280_humidity;BME280_pressure;Samples;Min_cycle;Max_cycle;Signal;HPM_P1;HPM_P2
2022/03/28 00:00:56;;;;;;;48.55;15.85;;;;;;;-0.46;55.04;99889.66;2127573;83;21032;-62
2022/03/28 00:03:58;;;;;;;45.63;14.40;;;;;;;-0.41;54.95;99885.34;2127550;83;21006;-62
2022/03/28 00:06:59;;;;;;;47.13;15.18;;;;;;;-0.31;55.16;99886.65;2127489;83;21611;-62
2022/03/28 00:10:02;;;;;;;47.55;15.50;;;;;;;-0.26;54.96;99879.75;2118802;83;21024;-61
2022/03/28 00:13:03;;;;;;;;;;;;;;;-0.33;55.10;99873.76;2120376;83;21107;-62
2022/03/28 00:16:05;;;;;;;48.05;15.83;;;;;;;-0.42;54.97;99869.88;2117981;84;20117;-62
2022/03/28 00:19:07;;;;;;;45.70;15.83;;;;;;;-0.46;55.12;99862.99;2117855;83;20984;-61
2022/03/28 00:22:08;;;;;;;50.28;16.07;;;;;;;-0.45;55.20;99861.70;2117745;83;21441;-62
2022/03/28 00:25:10;;;;;;;49.27;15.15;;;;;;;-0.41;55.12;99860.00;2118004;83;21076;-61
2022/03/28 00:28:11;;;;;;;48.70;15.72;;;;;;;-0.50;55.20;99857.41;2117776;83;21028;-62
2022/03/28 00:31:13;;;;;;;45.98;15.68;;;;;;;-0.60;55.29;99852.25;2117857;83;21060;-62
2022/03/28 00:34:15;;;;;;;43.83;16.23;;;;;;;-0.70;55.54;99843.65;2118111;83;21157;-62
2022/03/28 00:37:16;;;;;;;47.67;15.23;;;;;;;-0.74;55.72;99843.21;2118102;83;21061;-61
2022/03/28 00:40:19;;;;;;;49.42;15.48;;;;;;;-0.74;55.80;99835.92;2117450;83;21037;-62
2022/03/28 00:43:21;;;;;;;46.25;16.50;;;;;;;-0.67;55.85;99840.66;2117677;83;21033;-61
2022/03/28 00:46:22;;;;;;;51.30;17.35;;;;;;;-0.63;55.87;99837.20;2117781;83;20989;-61
2022/03/28 00:49:23;;;;;;;44.67;15.10;;;;;;;-0.67;56.00;99823.91;2117935;83;21107;-62
2022/03/28 00:52:25;;;;;;;46.37;14.45;;;;;;;-0.60;56.14;99819.19;2117765;83;21012;-62
2022/03/28 00:55:27;;;;;;;46.20;15.40;;;;;;;-0.63;55.94;99815.30;2118153;83;21552;-61
2022/03/28 00:58:28;;;;;;;41.92;14.93;;;;;;;-0.76;55.94;99814.02;2117937;84;21065;-62
2022/03/28 01:01:30;;;;;;;42.20;14.83;;;;;;;-0.85;56.27;99811.42;2118088;84;21520;-62
2022/03/28 01:04:31;;;;;;;45.78;15.43;;;;;;;-0.83;56.45;99807.14;2117751;83;20984;-61
2022/03/28 01:07:33;;;;;;;45.85;14.00;;;;;;;-0.78;56.62;99804.56;2117673;83;21040;-61
2022/03/28 01:10:34;;;;;;;42.58;15.00;;;;;;;-0.79;56.47;99794.70;2117439;83;21040;-62
2022/03/28 01:13:36;;;;;;;43.05;14.63;;;;;;;-0.84;56.42;99792.98;2117942;83;21041;-62
2022/03/28 01:19:41;;;;;;;45.15;15.65;;;;;;;-0.90;56.56;99783.09;2097825;84;21008;-62
2022/03/28 01:22:42;;;;;;;43.98;13.88;;;;;;;-0.90;56.54;99784.38;2118008;83;21001;-62
2022/03/28 01:25:45;;;;;;;43.33;13.85;;;;;;;-0.83;56.66;99780.09;2117984;83;21101;-62
2022/03/28 01:28:47;;;;;;;48.08;15.35;;;;;;;-0.94;56.54;99780.52;2117722;83;21524;-62
2022/03/28 01:31:48;;;;;;;41.68;15.15;;;;;;;-0.99;56.83;99786.08;2117785;83;21016;-61
2022/03/28 01:34:49;;;;;;;43.00;13.85;;;;;;;-1.03;56.92;99781.36;2117628;83;21076;-62
2022/03/28 01:37:51;;;;;;;43.63;15.10;;;;;;;-0.91;57.15;99774.92;2117874;83;21544;-62
2022/03/28 01:40:53;;;;;;;42.25;15.18;;;;;;;-0.79;57.15;99768.94;2117925;83;21116;-61
2022/03/28 01:43:55;;;;;;;44.73;15.08;;;;;;;-0.85;56.88;99761.19;2118246;83;21551;-62
2022/03/28 01:46:56;;;;;;;38.93;14.37;;;;;;;-0.94;57.07;99762.48;2118123;84;21068;-61
2022/03/28 01:49:58;;;;;;;41.28;13.78;;;;;;;-0.93;57.05;99757.77;2117838;83;21571;-61
2022/03/28 01:52:59;;;;;;;43.08;15.05;;;;;;;-1.00;57.25;99750.90;2118093;84;21037;-62
2022/03/28 01:56:00;;;;;;;43.55;15.25;;;;;;;-1.12;57.37;99748.73;2117881;83;21056;-61
2022/03/28 01:59:02;;;;;;;45.70;15.18;;;;;;;-1.08;57.64;99742.73;2117936;83;21109;-62
2022/03/28 02:02:03;;;;;;;45.70;15.00;;;;;;;-1.00;57.76;99736.29;2117558;83;21053;-61
2022/03/28 02:05:05;;;;;;;45.65;15.95;;;;;;;-1.03;57.54;99729.86;2118321;83;21573;-61
2022/03/28 02:08:07;;;;;;;44.23;15.35;;;;;;;-1.01;57.55;99727.28;2119144;83;21072;-62
2022/03/28 02:11:08;;;;;;;44.10;16.17;;;;;;;-1.02;58.00;99722.98;2144064;83;21543;-62
2022/03/28 02:14:10;;;;;;;44.58;15.45;;;;;;;-0.99;57.72;99725.55;2143792;83;21001;-62
2022/03/28 02:17:11;;;;;;;45.67;15.90;;;;;;;-1.06;57.51;99715.70;2143759;83;21514;-62
2022/03/28 02:20:13;;;;;;;42.73;15.53;;;;;;;-1.09;57.88;99716.98;2143906;83;20952;-61
2022/03/28 02:23:14;;;;;;;49.18;14.68;;;;;;;-1.02;57.79;99715.25;2143951;83;21064;-61
2022/03/28 02:26:17;;;;;;;42.78;14.45;;;;;;;-0.96;57.99;99703.66;2144065;83;21000;-61
2022/03/28 02:29:18;;;;;;;43.23;15.23;;;;;;;-0.98;57.63;99704.09;2143868;83;21035;-62
2022/03/28 02:32:20;;;;;;;46.77;14.40;;;;;;;-1.07;57.64;99703.67;2143786;83;21016;-61
2022/03/28 02:35:21;;;;;;;41.73;14.68;;;;;;;-1.09;57.72;99706.69;2143844;83;20980;-61
2022/03/28 02:38:23;;;;;;;48.52;16.65;;;;;;;-1.07;58.13;99697.23;2144155;83;21524;-62
2022/03/28 02:41:25;;;;;;;48.35;17.30;;;;;;;-1.00;58.03;99691.22;2143767;83;21059;-61
2022/03/28 02:44:26;;;;;;;47.83;17.60;;;;;;;-1.09;57.95;99689.95;2143948;83;20964;-62
2022/03/28 02:47:28;;;;;;;45.40;17.00;;;;;;;-1.19;58.12;99690.77;2144018;83;21024;-61
2022/03/28 02:50:30;;;;;;;46.15;16.95;;;;;;;-1.23;58.14;99690.78;2143957;83;21004;-62
2022/03/28 02:53:31;;;;;;;44.40;15.10;;;;;;;-1.22;58.28;99693.80;2143785;83;20989;-61
2022/03/28 02:56:33;;;;;;;50.28;15.85;;;;;;;-1.20;58.30;99683.49;2143888;83;21555;-62
2022/03/28 02:59:34;;;;;;;44.48;14.85;;;;;;;-1.22;58.43;99684.78;2143445;83;21012;-62
2022/03/28 03:02:36;;;;;;;48.05;15.80;;;;;;;-1.24;58.43;99683.91;2144142;83;21495;-62
2022/03/28 03:05:38;;;;;;;51.70;16.25;;;;;;;-1.28;58.44;99682.62;2143913;83;20992;-62
2022/03/28 03:08:39;;;;;;;45.38;15.28;;;;;;;-1.40;59.29;99675.75;2140058;83;21519;-62
2022/03/28 03:11:41;;;;;;;43.02;15.53;;;;;;;-1.34;59.21;99676.19;2117917;84;21017;-62
2022/03/28 03:14:43;;;;;;;45.17;14.97;;;;;;;-1.38;59.21;99677.04;2118286;84;21568;-61
2022/03/28 03:17:45;;;;;;;48.35;15.78;;;;;;;-1.47;59.31;99673.59;2117674;83;21005;-62
2022/03/28 03:20:46;;;;;;;43.20;16.27;;;;;;;-1.34;58.89;99668.03;2117997;83;21457;-61
2022/03/28 03:23:47;;;;;;;44.53;14.68;;;;;;;-1.31;58.79;99663.31;2117675;83;21044;-62
2022/03/28 03:26:49;;;;;;;52.67;16.37;;;;;;;-1.29;58.92;99660.33;2117766;84;20996;-62
2022/03/28 03:29:52;;;;;;;41.45;14.53;;;;;;;-1.27;58.79;99659.89;2118074;83;21611;-62
2022/03/28 03:32:54;;;;;;;48.17;15.08;;;;;;;-1.22;58.78;99655.62;2118274;83;21515;-61
2022/03/28 03:35:55;;;;;;;46.13;16.02;;;;;;;-1.13;58.61;99656.89;2117929;83;20989;-61
2022/03/28 03:38:57;;;;;;;45.40;15.23;;;;;;;-1.09;58.61;99650.03;2118231;84;21540;-61
2022/03/28 03:41:58;;;;;;;46.23;16.00;;;;;;;-1.06;58.45;99647.02;2118294;83;21037;-62
2022/03/28 03:45:00;;;;;;;49.45;16.70;;;;;;;-1.09;58.42;99642.31;2117953;83;21080;-62
2022/03/28 03:48:01;;;;;;;46.25;16.73;;;;;;;-1.05;58.24;99642.71;2117979;84;21092;-62
2022/03/28 03:51:03;;;;;;;58.80;18.47;;;;;;;-0.99;58.22;99640.56;2117900;83;21548;-62
2022/03/28 03:54:05;;;;;;;47.53;16.48;;;;;;;-0.98;58.07;99637.13;2117983;84;20993;-61
2022/03/28 03:57:07;;;;;;;50.43;16.12;;;;;;;-0.96;58.02;99632.83;2117956;84;21113;-61
2022/03/28 04:00:09;;;;;;;;;;;;;;;-0.88;57.99;99628.53;2120094;83;21048;-61
2022/03/28 04:03:11;;;;;;;47.05;16.40;;;;;;;-0.84;57.79;99630.69;2118116;84;20396;-62
2022/03/28 04:06:13;;;;;;;45.08;16.62;;;;;;;-0.90;57.80;99624.67;2117906;83;20982;-61
2022/03/28 04:09:14;;;;;;;46.60;16.80;;;;;;;-0.94;58.15;99631.12;2120150;83;21631;-61
2022/03/28 04:12:16;;;;;;;49.30;15.77;;;;;;;-1.00;58.13;99628.13;2127355;84;20981;-61
2022/03/28 04:15:17;;;;;;;49.20;16.85;;;;;;;-1.02;58.36;99631.55;2127443;84;21088;-61
2022/03/28 04:18:19;;;;;;;46.68;16.30;;;;;;;-1.03;58.24;99634.98;2127678;83;21091;-61
2022/03/28 04:21:20;;;;;;;45.88;15.90;;;;;;;-1.05;58.48;99638.44;2127690;83;21014;-61
2022/03/28 04:24:22;;;;;;;43.55;15.08;;;;;;;-1.05;58.52;99632.41;2127873;83;21457;-61
2022/03/28 04:27:23;;;;;;;43.98;15.00;;;;;;;-1.05;58.67;99633.29;2127867;83;21500;-61
2022/03/28 04:30:25;;;;;;;47.85;15.85;;;;;;;-1.00;58.43;99632.43;2127528;83;21048;-61
2022/03/28 04:33:26;;;;;;;43.90;16.00;;;;;;;-1.02;58.49;99632.44;2127620;83;20992;-61
2022/03/28 04:36:28;;;;;;;50.63;17.92;;;;;;;-1.00;58.45;99624.70;2127963;83;21037;-61
2022/03/28 04:39:29;;;;;;;46.90;15.55;;;;;;;-0.96;58.56;99619.54;2127597;83;21005;-62
2022/03/28 04:42:31;;;;;;;55.10;17.05;;;;;;;-0.83;58.65;99620.78;2127420;83;21029;-61
2022/03/28 04:45:33;;;;;;;52.27;16.73;;;;;;;-0.76;58.47;99618.22;2127209;83;21139;-61
2022/03/28 04:48:34;;;;;;;49.40;17.30;;;;;;;-0.59;58.28;99613.02;2127837;83;21039;-62
2022/03/28 04:51:36;;;;;;;55.90;18.98;;;;;;;-0.37;58.13;99611.22;2127460;83;21045;-61
2022/03/28 04:54:37;;;;;;;54.63;20.62;;;;;;;-0.07;57.73;99608.48;2127678;83;20997;-61
2022/03/28 04:57:39;;;;;;;47.87;17.97;;;;;;;0.13;57.47;99612.25;2127769;83;21005;-61
2022/03/28 05:00:40;;;;;;;56.28;18.92;;;;;;;0.38;57.16;99606.95;2127689;83;21072;-61
2022/03/28 05:03:42;;;;;;;49.33;16.00;;;;;;;0.59;56.75;99605.50;2127510;83;21116;-61
2022/03/28 05:06:43;;;;;;;46.83;17.52;;;;;;;0.78;56.97;99606.64;2127717;83;21906;-61
2022/03/28 05:09:45;;;;;;;49.15;17.05;;;;;;;0.85;56.34;99604.43;2127693;83;21032;-61
2022/03/28 05:12:46;;;;;;;50.78;16.97;;;;;;;1.04;56.09;99611.56;2127419;83;21538;-62
2022/03/28 05:15:47;;;;;;;50.35;18.17;;;;;;;1.23;55.68;99603.63;2127764;84;21033;-61
2022/03/28 05:18:49;;;;;;;49.58;17.67;;;;;;;1.48;55.52;99604.20;2127629;83;21018;-61
2022/03/28 05:21:50;;;;;;;48.42;18.05;;;;;;;1.72;55.93;99592.30;2127616;84;20984;-61
2022/03/28 05:24:52;;;;;;;50.67;18.30;;;;;;;2.00;55.43;99604.02;2127622;83;20954;-61
2022/03/28 05:27:53;;;;;;;45.53;17.13;;;;;;;2.25;54.43;99591.56;2128145;83;21476;-62
2022/03/28 05:30:57;;;;;;;52.38;18.05;;;;;;;2.55;53.97;99601.04;2127533;84;21193;-61
2022/03/28 05:33:58;;;;;;;54.23;20.97;;;;;;;2.78;54.48;99596.32;2127716;83;20986;-61
2022/03/28 05:36:59;;;;;;;50.83;19.20;;;;;;;3.01;54.99;99600.26;2127984;83;21105;-62
2022/03/28 05:40:02;;;;;;;51.53;19.52;;;;;;;3.26;54.79;99603.27;2127600;83;21095;-62
2022/03/28 05:43:04;;;;;;;54.33;19.90;;;;;;;3.59;54.83;99588.36;2127640;84;21492;-62
2022/03/28 05:46:05;;;;;;;46.45;18.40;;;;;;;3.86;54.70;99586.09;2127805;84;20993;-62
2022/03/28 05:49:06;;;;;;;55.05;20.48;;;;;;;4.11;54.58;99588.56;2127711;83;21635;-62
2022/03/28 05:52:08;;;;;;;61.75;24.25;;;;;;;4.34;53.54;99583.30;2127948;83;21004;-62
2022/03/28 05:55:10;;;;;;;52.20;19.60;;;;;;;4.64;54.24;99580.83;2127884;83;21516;-61
2022/03/28 05:58:12;;;;;;;48.90;17.70;;;;;;;4.88;53.32;99573.33;2128105;83;21027;-61
2022/03/28 06:01:13;;;;;;;47.58;17.20;;;;;;;5.19;52.50;99570.31;2127745;83;20985;-61
2022/03/28 06:04:15;;;;;;;43.25;16.15;;;;;;;5.42;49.95;99568.84;2127719;84;21036;-62
2022/03/28 06:07:17;;;;;;;51.85;17.92;;;;;;;5.62;47.41;99570.88;2127529;83;21052;-62
2022/03/28 06:10:18;;;;;;;41.65;16.95;;;;;;;5.80;50.04;99568.63;2127649;83;21044;-62
2022/03/28 06:13:20;;;;;;;45.23;17.48;;;;;;;5.97;47.37;99562.48;2127605;84;21059;-62
2022/03/28 06:16:21;;;;;;;48.20;17.27;;;;;;;6.15;46.70;99563.69;2127728;83;21039;-62
2022/03/28 06:19:23;;;;;;;42.80;16.85;;;;;;;6.31;46.29;99563.22;2127575;83;20988;-62
2022/03/28 06:22:24;;;;;;;45.47;17.73;;;;;;;6.47;46.01;99560.97;2127936;83;21005;-62
2022/03/28 06:25:26;;;;;;;46.70;17.03;;;;;;;6.70;48.17;99555.84;2127474;83;21726;-62
2022/03/28 06:28:28;;;;;;;47.88;16.45;;;;;;;6.91;47.18;99546.45;2127208;83;22182;-61
2022/03/28 06:31:30;;;;;;;42.20;16.75;;;;;;;7.10;46.07;99547.11;2127544;83;21101;-62
2022/03/28 06:34:32;;;;;;;47.03;17.37;;;;;;;7.32;46.17;99543.73;2127538;84;21068;-62
2022/03/28 06:37:33;;;;;;;41.83;16.60;;;;;;;7.62;47.09;99545.67;2127553;83;21028;-62
2022/03/28 06:40:35;;;;;;;38.60;14.85;;;;;;;7.82;46.09;99539.69;2127808;83;21039;-62
2022/03/28 06:43:37;;;;;;;42.63;16.43;;;;;;;7.98;44.63;99540.79;2127640;83;21020;-62
2022/03/28 06:46:39;;;;;;;39.85;15.53;;;;;;;8.08;44.48;99535.22;2128090;83;21476;-62
2022/03/28 06:49:41;;;;;;;;;;;;;;;8.29;44.34;99536.98;2130095;83;21064;-62
2022/03/28 06:52:42;;;;;;;43.60;16.25;;;;;;;8.52;44.43;99531.75;2127720;84;20102;-62
2022/03/28 06:55:43;;;;;;;39.60;15.68;;;;;;;8.66;43.36;99522.87;2127588;83;21001;-62
2022/03/28 06:58:45;;;;;;;38.45;15.18;;;;;;;8.94;43.73;99516.48;2127678;83;21043;-62
2022/03/28 07:01:46;;;;;;;35.63;13.85;;;;;;;9.22;44.82;99517.41;2127486;84;20996;-62
2022/03/28 07:04:48;;;;;;;37.38;15.00;;;;;;;9.47;43.16;99513.24;2127828;83;21020;-62
2022/03/28 07:07:50;;;;;;;37.95;13.38;;;;;;;9.63;42.65;99516.01;2127784;83;21013;-62
2022/03/28 07:10:51;;;;;;;36.63;15.10;;;;;;;9.84;42.80;99511.98;2127755;83;21508;-62
2022/03/28 07:13:53;;;;;;;38.15;13.13;;;;;;;10.15;44.00;99502.68;2127930;83;20996;-62
2022/03/28 07:16:54;;;;;;;33.65;13.62;;;;;;;10.56;42.62;99487.55;2127821;83;21005;-62
2022/03/28 07:19:56;;;;;;;34.08;13.43;;;;;;;10.56;42.62;99487.55;2127814;83;20993;-62
2022/03/28 07:22:57;;;;;;;38.75;14.53;;;;;;;10.85;41.85;99481.75;2127807;83;20985;-62
2022/03/28 07:25:59;;;;;;;35.65;13.65;;;;;;;10.98;42.23;99484.59;2127482;84;21505;-62
2022/03/28 07:29:02;;;;;;;39.18;15.00;;;;;;;11.26;41.24;99495.33;2127536;83;21052;-62
2022/03/28 07:32:04;;;;;;;34.75;14.80;;;;;;;11.51;41.45;99476.94;2127548;84;21036;-62
2022/03/28 07:35:06;;;;;;;33.88;13.25;;;;;;;11.78;42.05;99465.84;2127614;83;21511;-62
2022/03/28 07:38:08;;;;;;;35.40;13.07;;;;;;;12.07;40.21;99477.84;2127892;83;20988;-62
2022/03/28 07:41:10;;;;;;;32.90;12.90;;;;;;;12.16;39.93;99472.05;2127779;83;21548;-62
2022/03/28 07:44:13;;;;;;;33.75;12.10;;;;;;;12.32;40.07;99464.12;2127913;83;21019;-62
2022/03/28 07:47:14;;;;;;;32.10;12.37;;;;;;;12.44;40.38;99456.84;2099680;84;21013;-62
2022/03/28 07:50:16;;;;;;;31.55;12.50;;;;;;;12.54;39.61;99469.44;2127864;83;21452;-62
2022/03/28 07:53:18;;;;;;;32.83;13.65;;;;;;;12.76;39.33;99465.92;2128009;84;21029;-62
2022/03/28 07:56:20;;;;;;;28.10;11.05;;;;;;;12.93;40.05;99453.51;2127904;83;21515;-62
2022/03/28 07:59:23;;;;;;;32.30;12.13;;;;;;;13.05;38.66;99461.16;2127453;83;21063;-62
2022/03/28 08:02:25;;;;;;;31.62;11.68;;;;;;;13.10;38.75;99457.75;2127912;83;20996;-62
2022/03/28 08:05:26;;;;;;;31.50;10.38;;;;;;;13.08;39.02;99453.90;2127715;84;21044;-62
2022/03/28 08:08:28;;;;;;;32.70;12.40;;;;;;;13.27;38.34;99443.55;2127802;83;20961;-62
2022/03/28 08:11:30;;;;;;;31.35;11.22;;;;;;;13.49;38.79;99429.92;2127379;83;21726;-62
2022/03/28 08:14:33;;;;;;;28.85;11.00;;;;;;;13.69;39.16;99436.52;2099291;84;21024;-62
2022/03/28 08:17:37;;;;;;;31.45;11.08;;;;;;;13.89;37.66;99435.72;2099365;84;21025;-62
2022/03/28 08:20:38;;;;;;;27.37;10.20;;;;;;;13.99;38.50;99415.25;2127717;83;21492;-62
2022/03/28 08:23:40;;;;;;;26.77;9.93;;;;;;;14.12;37.06;99424.52;2127575;83;21095;-62
2022/03/28 08:26:41;;;;;;;27.60;9.47;;;;;;;14.16;36.87;99432.58;2127426;83;21099;-62
2022/03/28 08:29:43;;;;;;;26.13;9.80;;;;;;;14.10;36.74;99426.88;2127935;84;20985;-62
2022/03/28 08:32:46;;;;;;;28.10;9.80;;;;;;;14.10;37.45;99418.97;2127752;83;21012;-62
2022/03/28 08:35:47;;;;;;;26.82;8.75;;;;;;;14.11;37.22;99389.85;2099547;84;20996;-62
2022/03/28 08:38:49;;;;;;;25.20;8.37;;;;;;;14.17;36.82;99394.70;2127920;84;21000;-62
2022/03/28 08:41:50;;;;;;;24.20;8.87;;;;;;;14.47;37.43;99385.67;2127846;84;20954;-62
2022/03/28 08:44:52;;;;;;;24.53;8.07;;;;;;;14.71;35.71;99392.88;2127849;84;21532;-62
2022/03/28 08:47:53;;;;;;;23.95;8.20;;;;;;;14.94;35.38;99378.09;2127742;83;21056;-62
2022/03/28 08:50:56;;;;;;;23.50;8.53;;;;;;;15.06;34.86;99378.53;2127804;83;21074;-62
2022/03/28 08:53:57;;;;;;;22.67;7.67;;;;;;;15.30;34.81;99378.20;2127525;83;21032;-62
2022/03/28 08:56:59;;;;;;;23.40;7.33;;;;;;;15.11;34.65;99383.48;2127876;83;21456;-62
2022/03/28 09:00:00;;;;;;;21.53;7.70;;;;;;;15.03;34.26;99380.56;2127698;83;20996;-62
2022/03/28 09:03:02;;;;;;;26.27;8.80;;;;;;;15.12;34.13;99365.36;2127734;83;21625;-62
2022/03/28 09:06:03;;;;;;;23.35;7.90;;;;;;;15.29;34.61;99365.48;2127858;83;21019;-62
2022/03/28 09:09:05;;;;;;;27.03;7.90;;;;;;;15.28;34.22;99354.53;2127877;83;21047;-62
2022/03/28 09:12:07;;;;;;;22.87;7.50;;;;;;;15.34;34.23;99349.28;2127598;83;21009;-62
2022/03/28 09:15:09;;;;;;;;;;;;;;;15.46;32.84;99348.86;2130255;83;21024;-62
2022/03/28 09:18:11;;;;;;;25.12;9.30;;;;;;;15.47;34.55;99319.67;2128002;84;20398;-62
2022/03/28 09:21:14;;;;;;;26.62;8.85;;;;;;;15.78;32.98;99355.77;2127213;83;21120;-62
2022/03/28 09:24:16;;;;;;;26.27;9.28;;;;;;;15.75;32.71;99345.41;2127587;83;20984;-62
2022/03/28 09:27:17;;;;;;;25.13;9.33;;;;;;;15.92;33.60;99335.77;2127848;83;21009;-62
2022/03/28 09:30:19;;;;;;;24.02;9.20;;;;;;;16.11;32.87;99326.44;2127651;84;20973;-62
2022/03/28 09:33:20;;;;;;;23.77;9.03;;;;;;;16.26;32.96;99320.45;2127610;84;21000;-62
2022/03/28 09:36:22;;;;;;;24.77;9.73;;;;;;;16.10;32.57;99315.48;2127933;84;21436;-62
2022/03/28 09:39:23;;;;;;;24.83;9.10;;;;;;;16.23;32.96;99300.37;2127685;83;21209;-62
2022/03/28 09:42:25;;;;;;;25.50;8.88;;;;;;;16.34;32.69;99294.73;2127625;83;21001;-62
2022/03/28 09:45:27;;;;;;;28.07;9.70;;;;;;;16.73;33.12;99299.18;2127857;83;20996;-63
2022/03/28 09:48:29;;;;;;;26.25;9.13;;;;;;;16.56;30.60;99311.09;2128206;83;21009;-62
2022/03/28 09:51:30;;;;;;;29.82;9.48;;;;;;;16.47;31.60;99290.65;2127487;84;21049;-62
2022/03/28 09:54:32;;;;;;;24.02;8.60;;;;;;;16.54;30.68;99279.45;2127602;83;20996;-62
2022/03/28 09:57:33;;;;;;;25.02;8.40;;;;;;;16.58;30.24;99278.25;2127999;83;21460;-62
2022/03/28 10:00:35;;;;;;;24.87;9.20;;;;;;;16.53;30.38;99291.48;2127354;84;20997;-62
2022/03/28 10:03:36;;;;;;;30.25;9.68;;;;;;;16.59;30.88;99263.19;2127766;83;21063;-62
2022/03/28 10:06:38;;;;;;;25.40;8.30;;;;;;;16.63;30.34;99277.38;2127865;83;20989;-62
2022/03/28 10:09:39;;;;;;;23.57;8.57;;;;;;;16.77;30.26;99273.65;2127839;83;21041;-62
2022/03/28 10:12:40;;;;;;;25.57;8.93;;;;;;;16.78;30.64;99251.50;2127848;84;21305;-62
2022/03/28 10:15:42;;;;;;;28.13;10.40;;;;;;;16.82;30.34;99249.43;2127526;83;21270;-62
2022/03/28 10:18:45;;;;;;;26.83;10.27;;;;;;;16.88;29.87;99254.30;2127781;83;22110;-62
2022/03/28 10:21:46;;;;;;;23.60;8.48;;;;;;;16.95;30.52;99255.48;2127598;83;21317;-62
2022/03/28 10:24:48;;;;;;;25.13;8.27;;;;;;;17.00;29.46;99232.58;2128054;84;20945;-62
2022/03/28 10:27:49;;;;;;;26.47;9.27;;;;;;;17.06;29.17;99254.59;2127842;83;21682;-62
2022/03/28 10:30:51;;;;;;;25.52;9.73;;;;;;;17.09;30.03;99252.19;2127447;84;21779;-62
2022/03/28 10:33:52;;;;;;;26.40;9.23;;;;;;;17.33;29.92;99259.11;2127879;83;21020;-62
2022/03/28 10:36:54;;;;;;;26.27;9.25;;;;;;;17.52;29.44;99238.05;2127942;83;21037;-62
2022/03/28 10:39:55;;;;;;;26.10;9.20;;;;;;;17.54;30.08;99234.80;2127935;83;21045;-63
2022/03/28 10:42:57;;;;;;;25.82;8.85;;;;;;;17.64;29.82;99224.23;2127553;83;21040;-62
2022/03/28 10:45:59;;;;;;;;;;;;;;;17.63;28.77;99226.05;2129944;84;21218;-62
2022/03/28 10:49:01;;;;;;;23.85;8.83;;;;;;;17.68;29.49;99218.20;2127785;84;20424;-62
2022/03/28 10:52:03;;;;;;;24.87;8.98;;;;;;;17.71;29.36;99209.97;2127748;83;21017;-62
2022/03/28 10:55:04;;;;;;;22.07;7.62;;;;;;;17.84;29.44;99196.02;2128037;83;21547;-62
2022/03/28 10:58:06;;;;;;;23.92;9.05;;;;;;;17.87;28.87;99202.88;2127796;83;21027;-62
2022/03/28 11:01:07;;;;;;;23.77;9.40;;;;;;;17.92;29.64;99181.64;2127805;83;21484;-62
2022/03/28 11:04:08;;;;;;;24.07;8.73;;;;;;;18.04;28.62;99178.41;2127939;83;21032;-62
2022/03/28 11:07:12;;;;;;;25.40;8.95;;;;;;;18.10;29.23;99173.92;2127823;83;21044;-62
2022/03/28 11:10:15;;;;;;;23.18;8.53;;;;;;;18.26;28.33;99174.75;2099501;84;21482;-63
2022/03/28 11:13:17;;;;;;;23.75;8.88;;;;;;;18.25;28.15;99155.80;2092749;84;21488;-62
2022/03/28 11:16:20;;;;;;;;;;;;;;;18.13;29.25;99143.12;2114730;84;20996;-62
2022/03/28 11:19:21;;;;;;;27.67;8.90;;;;;;;18.45;29.08;99135.95;2112146;84;20388;-62
2022/03/28 11:22:23;;;;;;;23.05;7.75;;;;;;;18.85;28.42;99148.31;2112307;84;20961;-62
2022/03/28 11:25:25;;;;;;;23.38;8.15;;;;;;;19.01;27.96;99141.98;2112250;84;21472;-63
2022/03/28 11:28:26;;;;;;;22.77;7.90;;;;;;;18.89;28.61;99140.42;2112508;84;20993;-62
2022/03/28 11:31:28;;;;;;;22.90;8.08;;;;;;;18.72;28.34;99127.80;2112325;84;21016;-62
2022/03/28 11:34:29;;;;;;;22.17;7.58;;;;;;;18.73;28.74;99120.19;2179026;82;20967;-62
2022/03/28 11:37:30;;;;;;;24.02;8.58;;;;;;;19.09;28.69;99099.23;2178840;82;21058;-62
2022/03/28 11:40:32;;;;;;;23.80;8.15;;;;;;;19.20;27.69;99112.38;2179004;82;20941;-62
2022/03/28 11:43:33;;;;;;;22.93;8.05;;;;;;;19.25;27.25;99114.12;2178777;82;20960;-60
2022/03/28 11:46:35;;;;;;;23.47;8.35;;;;;;;19.12;27.88;99105.12;2178798;82;21527;-60
2022/03/28 11:49:37;;;;;;;21.15;7.15;;;;;;;19.21;27.70;99102.09;2178732;82;21002;-60
2022/03/28 11:52:39;;;;;;;21.40;6.85;;;;;;;19.13;27.74;99088.16;2178889;82;21043;-60
2022/03/28 11:55:40;;;;;;;21.70;7.95;;;;;;;19.08;27.98;99078.47;2178787;82;20971;-60
2022/03/28 11:58:42;;;;;;;24.02;7.78;;;;;;;19.19;28.62;99092.08;2178959;82;21451;-60
2022/03/28 12:01:43;;;;;;;20.48;6.95;;;;;;;19.09;28.23;99093.41;2178893;82;20990;-60
2022/03/28 12:04:45;;;;;;;24.40;7.83;;;;;;;19.26;27.68;99064.44;2178693;82;21062;-60
2022/03/28 12:07:46;;;;;;;22.10;8.30;;;;;;;19.32;27.66;99052.75;2178679;82;21038;-60
2022/03/28 12:10:49;;;;;;;19.42;6.40;;;;;;;19.56;28.06;99044.24;2178130;81;20964;-60
2022/03/28 12:13:51;;;;;;;22.32;6.55;;;;;;;19.63;28.47;99051.66;2127523;83;21024;-60
2022/03/28 12:16:53;;;;;;;18.45;6.08;;;;;;;19.71;28.50;99041.10;2172281;81;21528;-60
2022/03/28 12:19:54;;;;;;;18.73;5.80;;;;;;;19.76;27.62;99068.63;2172099;81;21049;-60
2022/03/28 12:22:56;;;;;;;21.25;6.33;;;;;;;19.42;28.10;99055.35;2172403;81;21448;-60
2022/03/28 12:25:58;;;;;;;18.87;5.70;;;;;;;19.19;29.53;99041.09;2172061;82;21120;-60
2022/03/28 12:29:00;;;;;;;19.98;5.72;;;;;;;19.37;28.08;99039.84;2172168;82;21536;-60
2022/03/28 12:32:01;;;;;;;19.75;5.67;;;;;;;19.25;28.00;99052.97;2172301;81;21041;-60
2022/03/28 12:35:02;;;;;;;18.00;5.53;;;;;;;19.12;28.40;99028.50;2172153;81;21099;-60
2022/03/28 12:38:04;;;;;;;19.87;5.97;;;;;;;19.38;29.15;99002.13;2172253;81;21090;-60
2022/03/28 12:41:06;;;;;;;20.72;6.35;;;;;;;19.44;27.76;99018.83;2127616;83;21023;-60
2022/03/28 12:44:07;;;;;;;18.82;5.90;;;;;;;19.30;28.42;99003.34;2172371;82;21247;-60
2022/03/28 12:47:10;;;;;;;18.85;5.80;;;;;;;19.46;27.96;98994.73;2172176;81;21037;-60
2022/03/28 12:50:11;;;;;;;19.67;6.47;;;;;;;19.46;27.98;98992.91;2127559;84;20991;-60
2022/03/28 12:53:13;;;;;;;21.87;6.12;;;;;;;19.68;27.96;98976.21;2127655;84;21043;-60
2022/03/28 12:56:15;;;;;;;;;;;;;;;19.76;28.00;98988.29;2130054;83;21103;-60
2022/03/28 12:59:16;;;;;;;19.57;5.27;;;;;;;19.69;27.73;98982.72;2111271;84;20400;-60
2022/03/28 13:02:19;;;;;;;19.73;6.15;;;;;;;19.65;28.03;98986.69;2110982;84;21100;-60
2022/03/28 13:05:21;;;;;;;19.42;5.95;;;;;;;19.69;28.44;98963.27;2110937;84;21106;-60
2022/03/28 13:08:22;;;;;;;18.95;5.70;;;;;;;19.74;27.87;98957.02;2127196;84;21053;-60
2022/03/28 13:11:24;;;;;;;18.45;5.70;;;;;;;19.96;27.84;98947.79;2129322;83;21024;-60
2022/03/28 13:14:25;;;;;;;18.67;6.08;;;;;;;20.11;27.53;98949.92;2144101;83;21056;-60
2022/03/28 13:17:28;;;;;;;19.30;5.40;;;;;;;19.93;27.72;98955.25;2144322;83;21051;-60
2022/03/28 13:20:29;;;;;;;15.30;4.20;;;;;;;19.81;27.46;98942.63;2144230;83;21007;-60
2022/03/28 13:23:31;;;;;;;17.23;5.12;;;;;;;19.94;28.08;98944.92;2144565;83;20995;-61
2022/03/28 13:26:32;;;;;;;15.45;4.40;;;;;;;19.86;27.51;98946.52;2144505;83;20988;-60
2022/03/28 13:29:34;;;;;;;18.02;5.15;;;;;;;19.77;28.01;98950.06;2144702;83;21046;-60
2022/03/28 13:32:37;;;;;;;20.62;5.22;;;;;;;19.64;28.32;98921.62;2144664;83;21006;-60
2022/03/28 13:35:38;;;;;;;19.00;5.58;;;;;;;19.65;28.15;98912.66;2144683;83;20999;-60
2022/03/28 13:38:40;;;;;;;17.37;4.65;;;;;;;19.71;28.48;98920.89;2144657;83;21003;-60
2022/03/28 13:41:42;;;;;;;;;;;;;;;19.83;28.33;98904.23;2146922;83;21019;-60
2022/03/28 13:44:44;;;;;;;19.97;5.47;;;;;;;19.83;27.89;98889.60;2106496;84;20464;-60
2022/03/28 13:47:45;;;;;;;20.35;5.97;;;;;;;19.97;27.62;98902.03;2121535;84;21394;-60
2022/03/28 13:50:47;;;;;;;17.37;5.12;;;;;;;19.88;27.78;98893.13;2121426;84;21051;-60
2022/03/28 13:53:48;;;;;;;17.40;4.83;;;;;;;19.75;28.09;98880.16;2121523;84;21595;-60
2022/03/28 13:56:50;;;;;;;18.55;5.50;;;;;;;19.67;28.43;98880.11;2121093;84;21072;-60
2022/03/28 13:59:52;;;;;;;21.65;6.37;;;;;;;19.73;28.71;98884.81;2121347;84;21604;-60
2022/03/28 14:02:54;;;;;;;18.12;5.22;;;;;;;19.76;28.53;98850.42;2121441;84;21000;-60
2022/03/28 14:05:55;;;;;;;16.23;4.65;;;;;;;19.76;28.55;98843.27;2121551;84;21072;-60